Aviation Digital Data Service (ADDS)

Output produced by METARs form (1921 UTC 23 June 2018)
found at http://aviationweather.gov/adds/metars/
 
KMBS 231730Z 2318/2418 03007KT 6SM BR BKN010 OVC015 
     FM240600 03005KT 2SM -SHRA BR OVC006 
     FM241400 03010KT 5SM -DZ BR OVC012